Terminal Aerodrome Forecast
Issued by NWS Portland, OR

Home | Current Version | Previous Version | Text Only | Print | Product List | Glossary On
Versions: 1 2 3 4 5 6 7 8 9 10 11 12 13 14 15
000
FTUS46 KPQR 032320
TAFSLE
TAF
KSLE 032320Z 0400/0424 18008KT P6SM SCT025 BKN050
     FM040900 18007KT P6SM -RA OVC025
     FM041200 20009KT 5SM -RA BR OVC015
     FM041600 30007KT 4SM -SHRA BR BKN015 BKN025
     FM042100 32006KT P6SM SCT025 BKN035=

USA.gov is the U.S. government's official web portal to all federal, state and local government web resources and services.